createdAt,value
2018-06-12T00:00:52.814Z,96.60
2018-06-12T00:03:21.910Z,96.50
2018-06-12T00:10:50.556Z,96.70
2018-06-12T00:13:18.914Z,96.80
2018-06-12T00:15:47.382Z,96.20
2018-06-12T00:18:15.873Z,96.10
2018-06-12T00:20:44.133Z,96.00
2018-06-12T00:23:14.061Z,95.90
2018-06-12T00:25:42.391Z,96.00
2018-06-12T00:28:10.734Z,95.90
2018-06-12T00:30:39.112Z,96.00
2018-06-12T00:33:07.433Z,95.80
2018-06-12T00:35:35.715Z,96.10
2018-06-12T00:38:05.864Z,96.20
2018-06-12T00:40:34.704Z,96.30
2018-06-12T00:43:03.075Z,96.30
2018-06-12T00:45:31.620Z,96.50
2018-06-12T00:48:00.157Z,96.50
2018-06-12T00:50:29.620Z,96.40
2018-06-12T00:52:58.173Z,96.30
2018-06-12T00:55:26.715Z,96.30
2018-06-12T00:57:55.299Z,96.60
2018-06-12T01:00:24.655Z,96.40
2018-06-12T01:02:53.555Z,96.50
2018-06-12T01:05:22.191Z,96.30
2018-06-12T01:07:50.735Z,96.70
2018-06-12T01:10:19.715Z,96.90
2018-06-12T01:12:50.410Z,97.00
2018-06-12T01:15:18.945Z,97.20
2018-06-12T01:17:47.547Z,97.20
2018-06-12T01:20:16.160Z,96.90
2018-06-12T01:22:45.491Z,96.90
2018-06-12T01:25:14.315Z,96.70
2018-06-12T01:27:42.861Z,96.80
2018-06-12T01:30:11.635Z,96.70
2018-06-12T01:32:40.941Z,96.90
2018-06-12T01:35:09.520Z,96.90
2018-06-12T01:37:38.097Z,96.90
2018-06-12T01:40:06.614Z,96.90
2018-06-12T01:42:35.185Z,97.00
2018-06-12T01:45:03.761Z,97.20
2018-06-12T01:47:32.303Z,97.40
2018-06-12T01:50:01.706Z,97.20
2018-06-12T01:52:30.302Z,97.60
2018-06-12T01:54:58.834Z,97.40
2018-06-12T01:57:27.387Z,96.90
2018-06-12T01:59:55.939Z,96.80
2018-06-12T02:02:24.455Z,97.20
2018-06-12T02:04:53.851Z,97.20
2018-06-12T02:07:23.381Z,97.30
2018-06-12T02:09:51.984Z,97.60
2018-06-12T02:12:20.557Z,97.60
2018-06-12T02:14:49.769Z,97.10
2018-06-12T02:17:18.247Z,97.50
2018-06-12T02:19:46.861Z,97.60
2018-06-12T02:22:15.419Z,97.60
2018-06-12T02:24:43.994Z,97.90
2018-06-12T02:29:41.159Z,97.90
2018-06-12T02:32:10.235Z,97.80
2018-06-12T02:34:38.739Z,97.70
2018-06-12T02:37:07.527Z,97.80
2018-06-12T02:39:36.463Z,97.80
2018-06-12T02:42:04.986Z,97.60
2018-06-12T02:44:34.536Z,97.80
2018-06-12T02:47:03.085Z,97.20
2018-06-12T02:49:31.634Z,97.80
2018-06-12T02:52:00.175Z,98.00
2018-06-12T02:54:28.775Z,98.40
2018-06-12T02:56:57.319Z,97.80
2018-06-12T02:59:26.519Z,98.30
2018-06-12T03:01:59.212Z,98.00
2018-06-12T03:04:28.187Z,97.80
2018-06-12T03:06:57.209Z,97.80
2018-06-12T03:09:25.777Z,98.30
2018-06-12T03:11:54.395Z,97.80
2018-06-12T03:14:23.256Z,98.00
2018-06-12T03:16:52.426Z,98.40
2018-06-12T03:19:21.680Z,97.80
2018-06-12T03:21:50.254Z,97.80
2018-06-12T03:24:18.891Z,98.40
2018-06-12T03:26:48.868Z,97.90
2018-06-12T03:29:17.481Z,97.90
2018-06-12T03:31:46.284Z,97.80
2018-06-12T03:34:15.455Z,97.60
2018-06-12T03:36:44.644Z,97.80
2018-06-12T03:39:13.406Z,97.80
2018-06-12T03:41:41.967Z,98.10
2018-06-12T03:44:10.970Z,97.80
2018-06-12T03:46:39.898Z,98.30
2018-06-12T03:49:08.408Z,97.70
2018-06-12T03:51:37.960Z,97.70
2018-06-12T03:54:06.881Z,97.70
2018-06-12T03:56:35.402Z,98.50
2018-06-12T03:59:03.966Z,98.20
2018-06-12T04:01:32.567Z,98.70
2018-06-12T04:04:01.098Z,98.40
2018-06-12T04:06:29.703Z,98.90
2018-06-12T04:08:58.515Z,98.70
2018-06-12T04:11:28.074Z,99.00
2018-06-12T04:13:57.285Z,98.50
2018-06-12T04:16:26.176Z,98.80
2018-06-12T04:18:56.602Z,98.80
2018-06-12T04:21:25.128Z,98.70
2018-06-12T04:23:53.614Z,98.70
2018-06-12T04:26:22.956Z,99.10
2018-06-12T04:28:51.490Z,99.20
2018-06-12T04:31:20.029Z,99.40
2018-06-12T04:33:49.017Z,99.50
2018-06-12T04:36:17.742Z,99.80
2018-06-12T04:38:46.602Z,99.70
2018-06-12T04:41:15.229Z,99.60
2018-06-12T04:43:43.726Z,99.80
2018-06-12T04:46:12.237Z,99.90
2018-06-12T04:48:40.792Z,99.70
2018-06-12T04:51:09.312Z,99.90
2018-06-12T04:53:37.843Z,99.90
2018-06-12T04:56:06.492Z,99.90
2018-06-12T04:58:35.049Z,99.90
2018-06-12T05:01:03.671Z,99.90
2018-06-12T05:03:32.222Z,99.90
2018-06-12T05:06:02.243Z,99.90
2018-06-12T05:08:30.846Z,99.90
2018-06-12T05:10:59.841Z,99.90
2018-06-12T05:13:28.751Z,99.90
2018-06-12T05:15:57.847Z,99.90
2018-06-12T05:18:26.457Z,99.90
2018-06-12T05:20:55.040Z,99.90
2018-06-12T05:23:23.591Z,99.90
2018-06-12T05:25:52.860Z,99.90
2018-06-12T05:28:22.302Z,99.90
2018-06-12T05:30:51.118Z,99.90
2018-06-12T05:33:19.647Z,99.90
2018-06-12T05:35:48.220Z,99.90
2018-06-12T05:40:46.114Z,99.90
2018-06-12T05:43:14.647Z,99.90
2018-06-12T05:45:43.222Z,99.90
2018-06-12T05:48:11.708Z,99.90
2018-06-12T05:50:40.580Z,99.90
2018-06-12T05:53:09.045Z,99.90
2018-06-12T05:55:37.563Z,99.90
2018-06-12T05:58:06.198Z,99.90
2018-06-12T06:00:34.824Z,99.90
2018-06-12T06:03:03.417Z,99.90
2018-06-12T06:05:32.725Z,99.90
2018-06-12T06:08:01.681Z,99.90
2018-06-12T06:10:30.183Z,99.90
2018-06-12T06:12:58.706Z,99.90
2018-06-12T06:15:27.647Z,99.90
2018-06-12T06:17:57.543Z,99.90
2018-06-12T06:20:26.139Z,99.90
2018-06-12T06:22:54.666Z,99.90
2018-06-12T06:25:23.202Z,99.90
2018-06-12T06:27:51.893Z,99.90
2018-06-12T06:30:20.410Z,99.90
2018-06-12T06:32:48.978Z,99.90
2018-06-12T06:35:17.610Z,99.90
2018-06-12T06:37:46.122Z,99.90
2018-06-12T06:40:14.674Z,99.90
2018-06-12T06:42:43.379Z,99.90
2018-06-12T06:45:11.853Z,99.90
2018-06-12T06:47:40.874Z,99.90
2018-06-12T06:50:10.163Z,99.90
2018-06-12T06:52:39.121Z,99.90
2018-06-12T06:55:07.940Z,99.90
2018-06-12T06:57:36.816Z,99.90
2018-06-12T07:00:05.540Z,99.90
2018-06-12T07:02:34.382Z,99.90
2018-06-12T07:05:02.890Z,99.90
2018-06-12T07:07:31.450Z,99.90
2018-06-12T07:10:00.026Z,99.90
2018-06-12T07:12:28.665Z,99.90
2018-06-12T07:14:57.249Z,99.90
2018-06-12T07:17:25.765Z,99.90
2018-06-12T07:19:54.310Z,99.90
2018-06-12T07:22:22.945Z,99.90
2018-06-12T07:24:51.485Z,99.90
2018-06-12T07:30:02.288Z,99.90
2018-06-12T07:32:30.757Z,99.90
2018-06-12T07:34:59.951Z,99.90
2018-06-12T07:37:28.500Z,99.90
2018-06-12T07:39:57.720Z,99.90
2018-06-12T07:42:26.267Z,99.90
2018-06-12T07:44:55.047Z,99.90
2018-06-12T07:47:23.599Z,99.90
2018-06-12T07:49:52.128Z,99.90
2018-06-12T07:52:20.636Z,99.90
2018-06-12T07:54:49.164Z,99.90
2018-06-12T07:57:17.655Z,99.90
2018-06-12T07:59:46.230Z,99.90
2018-06-12T08:02:14.803Z,99.90
2018-06-12T08:04:43.418Z,99.10
2018-06-12T08:07:11.930Z,99.40
2018-06-12T08:09:40.458Z,99.40
2018-06-12T08:12:09.333Z,98.40
2018-06-12T08:14:37.823Z,98.10
2018-06-12T08:17:06.384Z,98.00
2018-06-12T08:19:34.972Z,97.80
2018-06-12T08:22:03.490Z,98.60
2018-06-12T08:24:31.998Z,98.30
2018-06-12T08:27:00.535Z,97.60
2018-06-12T08:29:29.049Z,97.10
2018-06-12T08:31:57.587Z,98.00
2018-06-12T08:34:26.101Z,97.50
2018-06-12T08:36:54.631Z,96.90
2018-06-12T08:39:23.163Z,97.20
2018-06-12T08:41:51.751Z,96.50
2018-06-12T08:44:20.286Z,96.40
2018-06-12T08:46:48.802Z,96.60
2018-06-12T08:49:17.330Z,95.70
2018-06-12T08:51:45.879Z,96.60
2018-06-12T08:54:14.402Z,97.00
2018-06-12T08:56:42.893Z,96.10
2018-06-12T08:59:11.406Z,95.80
2018-06-12T09:01:39.894Z,96.00
2018-06-12T09:04:08.414Z,96.00
2018-06-12T09:06:36.939Z,95.40
2018-06-12T09:09:06.874Z,95.30
2018-06-12T09:11:35.394Z,95.70
2018-06-12T09:14:03.921Z,95.90
2018-06-12T09:16:32.482Z,95.90
2018-06-12T09:19:01.116Z,95.30
2018-06-12T09:21:29.653Z,95.30
2018-06-12T09:23:58.199Z,95.40
2018-06-12T09:26:26.675Z,96.10
2018-06-12T09:28:55.205Z,96.00
2018-06-12T09:31:23.750Z,96.20
2018-06-12T09:33:52.288Z,96.50
2018-06-12T09:36:26.099Z,96.50
2018-06-12T09:38:54.650Z,96.20
2018-06-12T09:41:23.178Z,96.30
2018-06-12T09:43:51.835Z,96.90
2018-06-12T09:46:20.402Z,96.80
2018-06-12T09:48:48.891Z,97.20
2018-06-12T09:51:17.381Z,97.10
2018-06-12T09:53:45.894Z,98.20
2018-06-12T09:56:14.418Z,98.10
2018-06-12T09:58:42.935Z,98.60
2018-06-12T10:01:16.784Z,99.20
2018-06-12T10:03:45.318Z,98.70
2018-06-12T10:06:14.088Z,99.10
2018-06-12T10:08:42.623Z,99.10
2018-06-12T10:11:11.162Z,99.20
2018-06-12T10:13:39.653Z,99.50
2018-06-12T10:16:08.169Z,99.60
2018-06-12T10:18:36.694Z,99.90
2018-06-12T10:21:06.209Z,99.60
2018-06-12T10:23:35.347Z,99.90
2018-06-12T10:26:04.043Z,99.90
2018-06-12T10:28:32.639Z,99.90
2018-06-12T10:31:01.213Z,99.90
2018-06-12T10:33:29.820Z,99.80
2018-06-12T10:35:58.425Z,99.70
2018-06-12T10:38:27.095Z,99.70
2018-06-12T10:40:55.679Z,99.60
2018-06-12T10:43:24.241Z,99.70
2018-06-12T10:45:52.907Z,98.70
2018-06-12T10:48:21.504Z,99.10
2018-06-12T10:50:50.051Z,96.70
2018-06-12T10:53:18.563Z,97.00
2018-06-12T10:55:47.063Z,96.60
2018-06-12T10:58:15.625Z,97.20
2018-06-12T11:00:44.212Z,97.80
2018-06-12T11:03:12.735Z,98.00
2018-06-12T11:05:41.285Z,97.70
2018-06-12T11:08:09.796Z,97.80
2018-06-12T11:10:38.379Z,97.60
2018-06-12T11:13:07.046Z,97.70
2018-06-12T11:15:35.547Z,97.90
2018-06-12T11:18:04.090Z,98.60
2018-06-12T11:20:32.657Z,98.80
2018-06-12T11:23:01.781Z,98.40
2018-06-12T11:25:30.501Z,97.90
2018-06-12T11:27:59.028Z,98.00
2018-06-12T11:30:27.610Z,97.80
2018-06-12T11:32:56.203Z,97.70
2018-06-12T11:35:24.831Z,97.80
2018-06-12T11:37:53.543Z,97.60
2018-06-12T11:40:22.209Z,97.30
2018-06-12T11:42:50.958Z,96.90
2018-06-12T11:45:19.573Z,97.20
2018-06-12T11:47:48.462Z,96.70
2018-06-12T11:50:17.133Z,96.60
2018-06-12T11:52:45.777Z,97.00
2018-06-12T11:55:14.408Z,96.60
2018-06-12T11:57:43.025Z,96.40
2018-06-12T12:00:11.813Z,96.40
2018-06-12T12:02:40.474Z,96.40
2018-06-12T12:05:09.053Z,96.80
2018-06-12T12:07:37.775Z,96.60
2018-06-12T12:10:06.397Z,96.50
2018-06-12T12:12:35.029Z,96.70
2018-06-12T12:15:03.681Z,96.40
2018-06-12T12:17:32.248Z,96.50
2018-06-12T12:20:01.057Z,96.60
2018-06-12T12:22:29.729Z,96.80
2018-06-12T12:24:58.221Z,96.70
2018-06-12T12:27:26.813Z,96.60
2018-06-12T12:29:55.412Z,96.30
2018-06-12T12:32:23.996Z,96.30
2018-06-12T12:34:52.531Z,96.50
2018-06-12T12:37:21.143Z,95.40
2018-06-12T12:39:49.768Z,95.90
2018-06-12T12:42:18.437Z,94.40
2018-06-12T12:44:46.977Z,94.30
2018-06-12T12:47:15.566Z,94.20
2018-06-12T12:49:44.228Z,93.40
2018-06-12T12:52:12.753Z,93.50
2018-06-12T12:54:41.342Z,92.80
2018-06-12T13:00:00.413Z,93.10
2018-06-12T13:02:28.946Z,93.30
2018-06-12T13:04:57.557Z,93.10
2018-06-12T13:07:26.145Z,92.50
2018-06-12T13:09:54.699Z,92.80
2018-06-12T13:12:24.433Z,92.90
2018-06-12T13:14:53.309Z,92.70
2018-06-12T13:17:21.869Z,92.60
2018-06-12T13:19:50.439Z,93.00
2018-06-12T13:22:19.838Z,92.30
2018-06-12T13:24:48.440Z,92.70
2018-06-12T13:27:17.297Z,91.70
2018-06-12T13:29:45.852Z,92.10
2018-06-12T13:32:14.460Z,92.30
2018-06-12T13:34:43.050Z,91.00
2018-06-12T13:37:11.609Z,91.50
2018-06-12T13:39:40.224Z,91.00
2018-06-12T13:42:08.761Z,91.50
2018-06-12T13:44:37.346Z,90.70
2018-06-12T13:47:05.943Z,91.10
2018-06-12T13:49:34.591Z,91.00
2018-06-12T13:52:03.174Z,90.80
2018-06-12T13:54:31.749Z,90.10
2018-06-12T13:57:00.295Z,88.20
2018-06-12T13:59:28.843Z,88.40
2018-06-12T14:01:57.308Z,90.00
2018-06-12T14:04:25.862Z,90.00
2018-06-12T14:06:54.448Z,88.10
2018-06-12T14:09:22.937Z,89.20
2018-06-12T14:11:51.518Z,89.00
2018-06-12T14:14:20.125Z,87.40
2018-06-12T14:16:48.698Z,88.70
2018-06-12T14:19:17.191Z,86.10
2018-06-12T14:21:45.784Z,86.20
2018-06-12T14:24:14.375Z,86.10
2018-06-12T14:26:42.992Z,86.00
2018-06-12T14:29:11.556Z,84.40
2018-06-12T14:31:40.079Z,85.10
2018-06-12T14:34:08.713Z,85.00
2018-06-12T14:36:37.258Z,84.10
2018-06-12T14:39:08.393Z,82.60
2018-06-12T14:41:37.860Z,83.20
2018-06-12T14:44:06.990Z,83.80
2018-06-12T14:46:36.400Z,84.00
2018-06-12T14:49:04.996Z,83.70
2018-06-12T14:51:33.816Z,84.80
2018-06-12T14:54:02.365Z,83.70
2018-06-12T14:56:30.969Z,83.30
2018-06-12T14:58:59.651Z,83.80
2018-06-12T15:01:28.171Z,84.50
2018-06-12T15:03:56.701Z,83.00
2018-06-12T15:06:25.279Z,83.10
2018-06-12T15:08:56.580Z,83.60
2018-06-12T15:11:25.228Z,82.30
2018-06-12T15:13:54.840Z,82.30
2018-06-12T15:16:23.780Z,82.80
2018-06-12T15:18:52.350Z,82.10
2018-06-12T15:21:20.863Z,82.20
2018-06-12T15:23:49.440Z,81.80
2018-06-12T15:26:19.019Z,81.50
2018-06-12T15:28:47.602Z,79.80
2018-06-12T15:31:16.228Z,79.20
2018-06-12T15:33:44.774Z,81.20
2018-06-12T15:36:13.285Z,81.70
2018-06-12T15:38:42.632Z,81.80
2018-06-12T15:41:11.184Z,81.30
2018-06-12T15:43:39.806Z,82.20
2018-06-12T15:46:08.396Z,83.30
2018-06-12T15:48:37.061Z,83.70
2018-06-12T15:51:05.594Z,84.10
2018-06-12T15:53:34.238Z,84.00
2018-06-12T15:56:02.880Z,82.50
2018-06-12T15:58:31.416Z,81.00
2018-06-12T16:01:00.125Z,81.90
2018-06-12T16:03:28.679Z,83.30
2018-06-12T16:05:57.529Z,81.90
2018-06-12T16:08:26.081Z,79.80
2018-06-12T16:10:57.790Z,80.80
2018-06-12T16:13:26.400Z,81.50
2018-06-12T16:15:55.037Z,81.60
2018-06-12T16:18:23.724Z,79.60
2018-06-12T16:20:52.338Z,79.70
2018-06-12T16:23:20.968Z,78.70
2018-06-12T16:25:49.512Z,78.90
2018-06-12T16:28:18.020Z,79.10
2018-06-12T16:30:46.699Z,78.60
2018-06-12T16:33:15.303Z,78.30
2018-06-12T16:35:44.047Z,77.90
2018-06-12T16:38:12.588Z,77.90
2018-06-12T16:40:41.162Z,78.60
2018-06-12T16:43:09.771Z,77.20
2018-06-12T16:45:38.365Z,78.10
2018-06-12T16:48:07.129Z,77.60
2018-06-12T16:50:35.672Z,78.60
2018-06-12T16:53:04.244Z,77.90
2018-06-12T16:55:32.848Z,77.70
2018-06-12T16:58:01.393Z,77.30
2018-06-12T17:00:29.950Z,77.50
2018-06-12T17:02:58.538Z,78.70
2018-06-12T17:05:27.103Z,78.90
2018-06-12T17:07:55.794Z,78.30
2018-06-12T17:10:24.341Z,79.40
2018-06-12T17:12:52.881Z,76.60
2018-06-12T17:15:21.532Z,76.70
2018-06-12T17:17:50.089Z,77.40
2018-06-12T17:20:18.620Z,77.00
2018-06-12T17:22:47.319Z,78.30
2018-06-12T17:25:15.918Z,78.70
2018-06-12T17:27:44.600Z,79.60
2018-06-12T17:30:13.175Z,78.30
2018-06-12T17:32:41.779Z,78.20
2018-06-12T17:35:10.428Z,78.80
2018-06-12T17:37:39.067Z,79.70
2018-06-12T17:40:07.678Z,79.70
2018-06-12T17:42:36.243Z,78.90
2018-06-12T17:45:04.841Z,80.80
2018-06-12T17:47:33.463Z,81.00
2018-06-12T17:50:02.761Z,81.70
2018-06-12T17:52:31.494Z,81.80
2018-06-12T17:57:28.632Z,82.00
2018-06-12T17:59:58.027Z,82.20
2018-06-12T18:02:27.033Z,82.90
2018-06-12T18:04:59.000Z,81.80
2018-06-12T18:07:28.035Z,81.90
2018-06-12T18:09:56.690Z,82.50
2018-06-12T18:12:25.302Z,82.00
2018-06-12T18:17:23.214Z,82.50
2018-06-12T18:19:56.987Z,83.70
2018-06-12T18:22:25.664Z,84.00
2018-06-12T18:24:54.528Z,83.80
2018-06-12T18:27:23.137Z,83.70
2018-06-12T18:29:51.692Z,84.50
2018-06-12T18:32:20.201Z,85.00
2018-06-12T18:34:48.632Z,85.00
2018-06-12T18:37:17.169Z,85.30
2018-06-12T18:39:45.802Z,85.40
2018-06-12T18:42:14.577Z,85.00
2018-06-12T18:44:43.097Z,85.50
2018-06-12T18:47:11.546Z,86.10
2018-06-12T18:49:40.049Z,85.80
2018-06-12T18:52:08.493Z,86.20
2018-06-12T18:54:36.959Z,86.40
2018-06-12T18:59:33.699Z,88.60
2018-06-12T19:02:02.215Z,87.90
2018-06-12T19:04:30.627Z,87.80
2018-06-12T19:06:59.143Z,88.70
2018-06-12T19:09:27.723Z,88.30
2018-06-12T19:11:56.186Z,88.20
2018-06-12T19:14:24.652Z,89.70
2018-06-12T19:16:53.217Z,90.00
2018-06-12T19:19:21.671Z,90.20
2018-06-12T19:24:18.341Z,91.00
2018-06-12T19:26:46.953Z,91.40
2018-06-12T19:29:15.486Z,91.60
2018-06-12T19:31:43.990Z,91.90
2018-06-12T19:34:12.453Z,92.00
2018-06-12T19:36:40.990Z,92.30
2018-06-12T19:39:09.425Z,92.30
2018-06-12T19:41:37.914Z,93.00
2018-06-12T19:44:06.458Z,93.40
2018-06-12T19:46:34.923Z,93.80
2018-06-12T19:49:03.366Z,94.20
2018-06-12T19:51:31.870Z,94.50
2018-06-12T19:54:00.289Z,94.80
2018-06-12T19:56:28.812Z,94.80
2018-06-12T19:58:57.887Z,94.70
2018-06-12T20:01:26.511Z,95.10
2018-06-12T20:03:55.026Z,95.10
2018-06-12T20:06:23.603Z,95.10
2018-06-12T20:08:52.211Z,95.20
2018-06-12T20:11:23.652Z,95.50
2018-06-12T20:13:52.208Z,95.70
2018-06-12T20:16:20.773Z,95.70
2018-06-12T20:18:49.330Z,95.70
2018-06-12T20:21:17.954Z,95.80
2018-06-12T20:23:47.047Z,95.60
2018-06-12T20:26:15.651Z,95.60
2018-06-12T20:28:44.315Z,95.80
2018-06-12T20:31:12.876Z,95.50
2018-06-12T20:33:41.545Z,95.20
2018-06-12T20:36:10.167Z,94.90
2018-06-12T20:38:38.782Z,95.10
2018-06-12T20:41:07.488Z,95.30
2018-06-12T20:43:36.080Z,95.60
2018-06-12T20:46:04.673Z,96.10
2018-06-12T20:48:33.250Z,96.10
2018-06-12T20:51:01.932Z,96.00
2018-06-12T20:53:30.818Z,95.90
2018-06-12T20:55:59.689Z,95.90
2018-06-12T20:58:28.380Z,95.90
2018-06-12T21:00:57.279Z,96.30
2018-06-12T21:03:25.855Z,96.60
2018-06-12T21:05:54.425Z,96.80
2018-06-12T21:08:23.025Z,96.50
2018-06-12T21:10:51.575Z,95.90
2018-06-12T21:13:20.596Z,95.80
2018-06-12T21:15:49.180Z,96.00
2018-06-12T21:18:17.850Z,95.90
2018-06-12T21:20:46.501Z,95.90
2018-06-12T21:23:15.031Z,95.80
2018-06-12T21:25:43.592Z,95.80
2018-06-12T21:28:12.179Z,95.80
2018-06-12T21:30:41.043Z,95.70
2018-06-12T21:33:10.009Z,95.90
2018-06-12T21:35:38.844Z,96.20
2018-06-12T21:38:07.771Z,96.50
2018-06-12T21:40:36.627Z,96.50
2018-06-12T21:43:05.210Z,96.50
2018-06-12T21:45:33.873Z,96.90
2018-06-12T21:48:02.514Z,96.90
2018-06-12T21:50:31.714Z,96.90
2018-06-12T21:53:00.853Z,96.80
2018-06-12T21:55:29.377Z,96.80
2018-06-12T21:57:57.994Z,96.80
2018-06-12T22:00:39.586Z,96.80
2018-06-12T22:03:08.095Z,96.80
2018-06-12T22:05:36.692Z,97.10
2018-06-12T22:08:05.288Z,97.20
2018-06-12T22:13:02.095Z,97.30
2018-06-12T22:15:30.591Z,97.40
2018-06-12T22:17:59.112Z,97.20
2018-06-12T22:20:27.750Z,97.30
2018-06-12T22:22:56.297Z,97.40
2018-06-12T22:25:24.817Z,97.40
2018-06-12T22:27:53.344Z,97.50
2018-06-12T22:30:21.845Z,97.60
2018-06-12T22:32:50.423Z,97.50
2018-06-12T22:35:18.896Z,97.40
2018-06-12T22:37:47.441Z,97.20
2018-06-12T22:40:16.113Z,97.30
2018-06-12T22:42:44.626Z,97.30
2018-06-12T22:45:13.470Z,97.10
2018-06-12T22:47:41.920Z,97.00
2018-06-12T22:50:10.495Z,97.00
2018-06-12T22:52:38.937Z,96.90
2018-06-12T22:55:07.518Z,96.90
2018-06-12T22:57:36.105Z,97.00
2018-06-12T23:00:04.640Z,96.70
2018-06-12T23:02:33.185Z,96.60
2018-06-12T23:05:01.742Z,96.70
2018-06-12T23:07:30.188Z,96.80
2018-06-12T23:09:58.629Z,97.00
2018-06-12T23:12:27.103Z,96.80
2018-06-12T23:14:56.482Z,96.90
2018-06-12T23:17:25.201Z,97.20
2018-06-12T23:20:04.877Z,97.00
2018-06-12T23:22:33.396Z,97.10
2018-06-12T23:25:02.112Z,97.40
2018-06-12T23:27:31.179Z,97.40
2018-06-12T23:29:59.687Z,97.50
2018-06-12T23:32:28.361Z,97.60
2018-06-12T23:34:57.077Z,97.70
2018-06-12T23:37:25.612Z,97.70
2018-06-12T23:39:54.102Z,97.70
2018-06-12T23:42:22.596Z,97.80
2018-06-12T23:44:51.144Z,97.70
2018-06-12T23:49:47.986Z,97.50
2018-06-12T23:52:16.457Z,97.50
2018-06-12T23:54:44.891Z,97.80
2018-06-12T23:57:13.646Z,97.90
2018-06-12T23:59:42.545Z,98.00
